Louisville, NE (68037)

5:51 AM CST on February 11, 2016 (GMT -0600)
Southridge | | Change Station
CLOSE
Current Station
Personal Weather Station
Location: Louisville, NE
Elevation: 1083 ft
Nearby Weather Stations

Elev 1083 ft 40.99 °N, 96.15 °W | Updated 3 seconds ago

Overcast
Overcast
17.1 °F
Feels Like 17 °F
N
2.0
Wind Variable Wind from NE
Gusts 6.0 mph

Today
High -- | Low -- °F
--% Chance of Precip.
Yesterday
High -- | Low -- °F
Precip. -- in
Pressure 30.27 in
Visibility 10.0 miles
Clouds Mostly Cloudy 2600 ft
Overcast 3300 ft
Windchill 17 °F
Dew Point 12 °F
Humidity 81%
Rainfall 0.00 in
Snow Depth Not available.
7:24 AM 5:53 PM
Waxing Crescent, 11% visible
METAR KPMV 111135Z AUTO 02007KT 10SM BKN026 OVC033 M09/M11 A3027 RMK AO2 T10911115
Pressure 30.27 in
Visibility 10.0 miles
Clouds Mostly Cloudy 2600 ft
Overcast 3300 ft
Windchill 17 °F
Dew Point 12 °F
Humidity 81%
Rainfall 0.00 in
Snow Depth Not available.
7:24 AM 5:53 PM
Waxing Crescent, 11% visible
METAR KPMV 111135Z AUTO 02007KT 10SM BKN026 OVC033 M09/M11 A3027 RMK AO2 T10911115

10-Day Weather Forecast

Almanac

Astronomy

Feb. 11, 2016 Rise Set
Actual Time
Civil Twilight
Nautical Twilight
Astronomical Twilight
Moon
Length of Visible Light
Length of Day
Tomorrow will be .
, % of the Moon is Illuminated

Today's Extremes

State Highs State Lows

Community

WunderPhotos

Upload Photos

1,892,030 photos uploaded!

WunderBlog® & News

Nearby

Air Quality

  Air Quality AQ Index Pollutant
Not available.

Snow Depth

Station Depth Elevation

Earthquake Activity

City Distance Mag. Time & Date
Minimum magnitude displayed is 2.5.

Coastal Water Temperatures

Place Temperature

Stations

Nearby Weather Stations

Station Location Temp. Windchill Dew Point Humidity Wind Precip. Elev Updated Type
                   

Watches & Warnings

There are currently no watches in effect.